sensor_id;sensor_type;location;lat;lon;timestamp;P1;durP1;ratioP1;P2;durP2;ratioP2
13720;SDS011;6932;51.438;5.470;2022-12-29T00:00:00;1.17;;;1.07;;
13720;SDS011;6932;51.438;5.470;2022-12-29T00:02:26;1.27;;;0.70;;
13720;SDS011;6932;51.438;5.470;2022-12-29T00:04:52;0.57;;;0.50;;
13720;SDS011;6932;51.438;5.470;2022-12-29T00:07:18;0.50;;;0.50;;
13720;SDS011;6932;51.438;5.470;2022-12-29T00:09:44;0.50;;;0.50;;
13720;SDS011;6932;51.438;5.470;2022-12-29T00:12:10;1.27;;;0.60;;
13720;SDS011;6932;51.438;5.470;2022-12-29T00:14:35;1.00;;;0.60;;
13720;SDS011;6932;51.438;5.470;2022-12-29T00:17:20;0.63;;;0.60;;
13720;SDS011;6932;51.438;5.470;2022-12-29T00:19:45;0.63;;;0.50;;
13720;SDS011;6932;51.438;5.470;2022-12-29T00:22:30;0.60;;;0.60;;
13720;SDS011;6932;51.438;5.470;2022-12-29T00:25:14;1.10;;;0.70;;
13720;SDS011;6932;51.438;5.470;2022-12-29T00:27:59;1.57;;;0.80;;
13720;SDS011;6932;51.438;5.470;2022-12-29T00:30:43;1.20;;;1.00;;
13720;SDS011;6932;51.438;5.470;2022-12-29T00:33:31;2.63;;;1.53;;
13720;SDS011;6932;51.438;5.470;2022-12-29T00:36:21;1.63;;;1.43;;
13720;SDS011;6932;51.438;5.470;2022-12-29T00:39:08;2.03;;;1.60;;
13720;SDS011;6932;51.438;5.470;2022-12-29T00:42:02;1.80;;;1.50;;
13720;SDS011;6932;51.438;5.470;2022-12-29T00:44:45;1.83;;;1.60;;
13720;SDS011;6932;51.438;5.470;2022-12-29T00:47:11;4.97;;;1.80;;
13720;SDS011;6932;51.438;5.470;2022-12-29T00:49:36;1.90;;;1.70;;
13720;SDS011;6932;51.438;5.470;2022-12-29T00:54:30;2.23;;;1.50;;
13720;SDS011;6932;51.438;5.470;2022-12-29T00:56:58;1.90;;;1.50;;
13720;SDS011;6932;51.438;5.470;2022-12-29T00:59:25;1.27;;;1.17;;
13720;SDS011;6932;51.438;5.470;2022-12-29T01:01:51;2.23;;;1.47;;
13720;SDS011;6932;51.438;5.470;2022-12-29T01:04:20;1.30;;;1.20;;
13720;SDS011;6932;51.438;5.470;2022-12-29T01:06:48;1.30;;;1.20;;
13720;SDS011;6932;51.438;5.470;2022-12-29T01:09:14;3.00;;;1.40;;
13720;SDS011;6932;51.438;5.470;2022-12-29T01:12:00;1.70;;;1.00;;
13720;SDS011;6932;51.438;5.470;2022-12-29T01:14:26;1.30;;;1.20;;
13720;SDS011;6932;51.438;5.470;2022-12-29T01:16:52;1.10;;;1.00;;
13720;SDS011;6932;51.438;5.470;2022-12-29T01:19:20;2.57;;;1.40;;
13720;SDS011;6932;51.438;5.470;2022-12-29T01:21:46;1.10;;;1.00;;
13720;SDS011;6932;51.438;5.470;2022-12-29T01:24:13;1.63;;;0.90;;
13720;SDS011;6932;51.438;5.470;2022-12-29T01:26:41;1.43;;;1.10;;
13720;SDS011;6932;51.438;5.470;2022-12-29T01:29:08;2.00;;;1.43;;
13720;SDS011;6932;51.438;5.470;2022-12-29T01:31:34;1.40;;;1.10;;
13720;SDS011;6932;51.438;5.470;2022-12-29T01:34:00;1.23;;;0.90;;
13720;SDS011;6932;51.438;5.470;2022-12-29T01:36:26;0.60;;;0.60;;
13720;SDS011;6932;51.438;5.470;2022-12-29T01:38:52;1.00;;;0.83;;
13720;SDS011;6932;51.438;5.470;2022-12-29T01:41:18;0.80;;;0.80;;
13720;SDS011;6932;51.438;5.470;2022-12-29T01:43:45;0.60;;;0.60;;
13720;SDS011;6932;51.438;5.470;2022-12-29T01:48:53;1.40;;;0.80;;
13720;SDS011;6932;51.438;5.470;2022-12-29T01:51:44;1.10;;;1.00;;
13720;SDS011;6932;51.438;5.470;2022-12-29T01:54:28;2.07;;;0.77;;
13720;SDS011;6932;51.438;5.470;2022-12-29T01:57:01;1.63;;;0.80;;
13720;SDS011;6932;51.438;5.470;2022-12-29T01:59:34;0.60;;;0.60;;
13720;SDS011;6932;51.438;5.470;2022-12-29T02:02:08;2.03;;;0.80;;
13720;SDS011;6932;51.438;5.470;2022-12-29T02:04:34;1.67;;;0.70;;
13720;SDS011;6932;51.438;5.470;2022-12-29T02:07:09;1.43;;;0.80;;
13720;SDS011;6932;51.438;5.470;2022-12-29T02:09:43;0.90;;;0.70;;
13720;SDS011;6932;51.438;5.470;2022-12-29T02:12:13;1.97;;;0.70;;
13720;SDS011;6932;51.438;5.470;2022-12-29T02:14:39;1.30;;;0.70;;
13720;SDS011;6932;51.438;5.470;2022-12-29T02:17:08;2.00;;;1.10;;
13720;SDS011;6932;51.438;5.470;2022-12-29T02:31:59;1.27;;;0.70;;
13720;SDS011;6932;51.438;5.470;2022-12-29T02:34:46;1.40;;;0.80;;
13720;SDS011;6932;51.438;5.470;2022-12-29T02:37:54;1.20;;;0.70;;
13720;SDS011;6932;51.438;5.470;2022-12-29T02:48:59;1.33;;;0.70;;
13720;SDS011;6932;51.438;5.470;2022-12-29T02:51:31;2.50;;;1.10;;
13720;SDS011;6932;51.438;5.470;2022-12-29T02:54:11;3.10;;;0.77;;
13720;SDS011;6932;51.438;5.470;2022-12-29T02:56:56;2.67;;;0.90;;
13720;SDS011;6932;51.438;5.470;2022-12-29T02:59:22;1.80;;;0.90;;
13720;SDS011;6932;51.438;5.470;2022-12-29T03:08:34;1.33;;;0.60;;
13720;SDS011;6932;51.438;5.470;2022-12-29T03:11:13;1.93;;;0.70;;
13720;SDS011;6932;51.438;5.470;2022-12-29T03:14:02;1.03;;;0.67;;
13720;SDS011;6932;51.438;5.470;2022-12-29T03:17:14;2.43;;;0.67;;
13720;SDS011;6932;51.438;5.470;2022-12-29T03:20:10;1.97;;;0.80;;
13720;SDS011;6932;51.438;5.470;2022-12-29T03:22:48;1.53;;;0.70;;
13720;SDS011;6932;51.438;5.470;2022-12-29T03:25:28;1.17;;;0.70;;
13720;SDS011;6932;51.438;5.470;2022-12-29T03:28:00;1.70;;;0.70;;
13720;SDS011;6932;51.438;5.470;2022-12-29T03:30:32;0.80;;;0.50;;
13720;SDS011;6932;51.438;5.470;2022-12-29T03:33:02;2.80;;;0.70;;
13720;SDS011;6932;51.438;5.470;2022-12-29T03:35:37;2.27;;;0.80;;
13720;SDS011;6932;51.438;5.470;2022-12-29T03:38:12;1.87;;;0.80;;
13720;SDS011;6932;51.438;5.470;2022-12-29T03:40:55;0.83;;;0.60;;
13720;SDS011;6932;51.438;5.470;2022-12-29T03:43:25;1.83;;;0.70;;
13720;SDS011;6932;51.438;5.470;2022-12-29T03:45:53;0.93;;;0.40;;
13720;SDS011;6932;51.438;5.470;2022-12-29T03:48:18;1.50;;;0.60;;
13720;SDS011;6932;51.438;5.470;2022-12-29T03:50:44;1.80;;;0.63;;
13720;SDS011;6932;51.438;5.470;2022-12-29T03:53:10;2.57;;;0.87;;
13720;SDS011;6932;51.438;5.470;2022-12-29T03:55:36;1.87;;;0.53;;
13720;SDS011;6932;51.438;5.470;2022-12-29T03:58:01;2.67;;;0.80;;
13720;SDS011;6932;51.438;5.470;2022-12-29T04:00:27;2.83;;;0.70;;
13720;SDS011;6932;51.438;5.470;2022-12-29T04:02:53;0.93;;;0.60;;
13720;SDS011;6932;51.438;5.470;2022-12-29T04:05:19;2.13;;;0.70;;
13720;SDS011;6932;51.438;5.470;2022-12-29T04:07:46;1.50;;;0.70;;
13720;SDS011;6932;51.438;5.470;2022-12-29T04:10:11;4.13;;;0.80;;
13720;SDS011;6932;51.438;5.470;2022-12-29T04:12:37;1.50;;;0.50;;
13720;SDS011;6932;51.438;5.470;2022-12-29T04:15:03;1.80;;;0.60;;
13720;SDS011;6932;51.438;5.470;2022-12-29T04:17:30;1.77;;;0.70;;
13720;SDS011;6932;51.438;5.470;2022-12-29T04:19:56;1.53;;;0.70;;
13720;SDS011;6932;51.438;5.470;2022-12-29T04:22:41;2.37;;;0.70;;
13720;SDS011;6932;51.438;5.470;2022-12-29T04:25:07;1.47;;;0.77;;
13720;SDS011;6932;51.438;5.470;2022-12-29T04:27:33;1.23;;;0.60;;
13720;SDS011;6932;51.438;5.470;2022-12-29T04:29:59;2.00;;;0.80;;
13720;SDS011;6932;51.438;5.470;2022-12-29T04:32:25;2.47;;;0.73;;
13720;SDS011;6932;51.438;5.470;2022-12-29T04:34:50;1.73;;;0.60;;
13720;SDS011;6932;51.438;5.470;2022-12-29T04:37:16;1.43;;;0.67;;
13720;SDS011;6932;51.438;5.470;2022-12-29T04:39:42;3.47;;;0.70;;
13720;SDS011;6932;51.438;5.470;2022-12-29T04:42:08;2.63;;;0.90;;
13720;SDS011;6932;51.438;5.470;2022-12-29T04:44:33;3.43;;;0.90;;
13720;SDS011;6932;51.438;5.470;2022-12-29T04:46:59;2.13;;;0.70;;
13720;SDS011;6932;51.438;5.470;2022-12-29T04:49:25;1.77;;;0.90;;
13720;SDS011;6932;51.438;5.470;2022-12-29T04:51:51;3.23;;;1.10;;
13720;SDS011;6932;51.438;5.470;2022-12-29T04:54:16;4.23;;;0.97;;
13720;SDS011;6932;51.438;5.470;2022-12-29T04:56:42;4.33;;;1.13;;
13720;SDS011;6932;51.438;5.470;2022-12-29T04:59:08;3.50;;;1.00;;
13720;SDS011;6932;51.438;5.470;2022-12-29T05:01:33;2.47;;;0.90;;
13720;SDS011;6932;51.438;5.470;2022-12-29T05:03:59;3.50;;;0.90;;
13720;SDS011;6932;51.438;5.470;2022-12-29T05:06:25;3.27;;;0.83;;
13720;SDS011;6932;51.438;5.470;2022-12-29T05:08:51;2.07;;;0.70;;
13720;SDS011;6932;51.438;5.470;2022-12-29T05:11:17;2.93;;;0.93;;
13720;SDS011;6932;51.438;5.470;2022-12-29T05:13:45;0.77;;;0.60;;
13720;SDS011;6932;51.438;5.470;2022-12-29T05:16:11;2.07;;;0.80;;
13720;SDS011;6932;51.438;5.470;2022-12-29T05:18:38;2.50;;;0.80;;
13720;SDS011;6932;51.438;5.470;2022-12-29T05:21:03;2.90;;;0.90;;
13720;SDS011;6932;51.438;5.470;2022-12-29T05:23:29;2.17;;;0.73;;
13720;SDS011;6932;51.438;5.470;2022-12-29T05:25:55;2.37;;;0.80;;
13720;SDS011;6932;51.438;5.470;2022-12-29T05:28:21;2.23;;;0.63;;
13720;SDS011;6932;51.438;5.470;2022-12-29T05:30:50;3.23;;;0.70;;
13720;SDS011;6932;51.438;5.470;2022-12-29T05:33:17;1.87;;;0.80;;
13720;SDS011;6932;51.438;5.470;2022-12-29T05:35:44;3.93;;;1.00;;
13720;SDS011;6932;51.438;5.470;2022-12-29T05:38:10;1.27;;;0.70;;
13720;SDS011;6932;51.438;5.470;2022-12-29T05:40:36;4.17;;;1.10;;
13720;SDS011;6932;51.438;5.470;2022-12-29T05:43:01;1.67;;;0.70;;
13720;SDS011;6932;51.438;5.470;2022-12-29T05:45:27;4.10;;;1.00;;
13720;SDS011;6932;51.438;5.470;2022-12-29T05:47:53;2.60;;;0.90;;
13720;SDS011;6932;51.438;5.470;2022-12-29T05:50:19;2.97;;;1.10;;
13720;SDS011;6932;51.438;5.470;2022-12-29T05:52:44;2.07;;;0.80;;
13720;SDS011;6932;51.438;5.470;2022-12-29T05:55:10;3.17;;;1.10;;
13720;SDS011;6932;51.438;5.470;2022-12-29T05:57:37;2.43;;;1.00;;
13720;SDS011;6932;51.438;5.470;2022-12-29T06:00:06;2.47;;;0.60;;
13720;SDS011;6932;51.438;5.470;2022-12-29T06:02:33;2.17;;;0.67;;
13720;SDS011;6932;51.438;5.470;2022-12-29T06:04:58;3.17;;;1.00;;
13720;SDS011;6932;51.438;5.470;2022-12-29T06:07:24;2.80;;;0.70;;
13720;SDS011;6932;51.438;5.470;2022-12-29T06:09:50;2.17;;;0.77;;
13720;SDS011;6932;51.438;5.470;2022-12-29T06:12:16;3.43;;;0.97;;
13720;SDS011;6932;51.438;5.470;2022-12-29T06:14:42;3.17;;;0.90;;
13720;SDS011;6932;51.438;5.470;2022-12-29T06:17:07;3.13;;;0.60;;
13720;SDS011;6932;51.438;5.470;2022-12-29T06:19:34;3.53;;;0.80;;
13720;SDS011;6932;51.438;5.470;2022-12-29T06:22:00;2.97;;;0.97;;
13720;SDS011;6932;51.438;5.470;2022-12-29T06:24:26;1.67;;;0.93;;
13720;SDS011;6932;51.438;5.470;2022-12-29T06:26:51;1.87;;;0.80;;
13720;SDS011;6932;51.438;5.470;2022-12-29T06:29:17;2.20;;;0.80;;
13720;SDS011;6932;51.438;5.470;2022-12-29T06:31:46;3.03;;;1.00;;
13720;SDS011;6932;51.438;5.470;2022-12-29T06:34:13;3.03;;;1.10;;
13720;SDS011;6932;51.438;5.470;2022-12-29T06:36:39;3.53;;;0.97;;
13720;SDS011;6932;51.438;5.470;2022-12-29T06:39:05;5.50;;;1.10;;
13720;SDS011;6932;51.438;5.470;2022-12-29T06:41:31;3.63;;;1.00;;
13720;SDS011;6932;51.438;5.470;2022-12-29T06:43:57;3.90;;;1.00;;
13720;SDS011;6932;51.438;5.470;2022-12-29T06:46:23;3.03;;;0.93;;
13720;SDS011;6932;51.438;5.470;2022-12-29T06:48:48;2.73;;;0.70;;
13720;SDS011;6932;51.438;5.470;2022-12-29T06:51:14;4.80;;;1.50;;
13720;SDS011;6932;51.438;5.470;2022-12-29T06:53:40;3.23;;;1.07;;
13720;SDS011;6932;51.438;5.470;2022-12-29T06:56:06;4.63;;;1.00;;
13720;SDS011;6932;51.438;5.470;2022-12-29T06:58:32;4.03;;;1.10;;
13720;SDS011;6932;51.438;5.470;2022-12-29T07:00:58;3.47;;;1.20;;
13720;SDS011;6932;51.438;5.470;2022-12-29T07:03:23;2.50;;;1.10;;
13720;SDS011;6932;51.438;5.470;2022-12-29T07:05:49;2.43;;;1.00;;
13720;SDS011;6932;51.438;5.470;2022-12-29T07:08:15;4.03;;;1.00;;
13720;SDS011;6932;51.438;5.470;2022-12-29T07:10:41;3.60;;;1.40;;
13720;SDS011;6932;51.438;5.470;2022-12-29T07:13:06;3.60;;;1.20;;
13720;SDS011;6932;51.438;5.470;2022-12-29T07:15:32;3.30;;;1.07;;
13720;SDS011;6932;51.438;5.470;2022-12-29T07:18:00;3.70;;;1.30;;
13720;SDS011;6932;51.438;5.470;2022-12-29T07:20:26;5.47;;;1.40;;
13720;SDS011;6932;51.438;5.470;2022-12-29T07:22:52;2.67;;;1.10;;
13720;SDS011;6932;51.438;5.470;2022-12-29T07:25:18;3.90;;;1.43;;
13720;SDS011;6932;51.438;5.470;2022-12-29T07:27:43;4.07;;;1.10;;
13720;SDS011;6932;51.438;5.470;2022-12-29T07:30:09;3.60;;;1.03;;
13720;SDS011;6932;51.438;5.470;2022-12-29T07:32:36;3.07;;;1.17;;
13720;SDS011;6932;51.438;5.470;2022-12-29T07:35:01;5.27;;;1.20;;
13720;SDS011;6932;51.438;5.470;2022-12-29T07:37:28;5.63;;;1.33;;
13720;SDS011;6932;51.438;5.470;2022-12-29T07:39:54;3.43;;;1.37;;
13720;SDS011;6932;51.438;5.470;2022-12-29T07:42:20;6.87;;;1.27;;
13720;SDS011;6932;51.438;5.470;2022-12-29T07:44:45;5.97;;;1.33;;
13720;SDS011;6932;51.438;5.470;2022-12-29T07:47:11;4.30;;;1.13;;
13720;SDS011;6932;51.438;5.470;2022-12-29T07:49:37;4.17;;;1.30;;
13720;SDS011;6932;51.438;5.470;2022-12-29T07:52:03;4.73;;;1.40;;
13720;SDS011;6932;51.438;5.470;2022-12-29T07:54:28;3.67;;;1.30;;
13720;SDS011;6932;51.438;5.470;2022-12-29T07:56:54;5.47;;;1.40;;
13720;SDS011;6932;51.438;5.470;2022-12-29T07:59:20;7.47;;;1.33;;
13720;SDS011;6932;51.438;5.470;2022-12-29T08:01:47;3.97;;;1.40;;
13720;SDS011;6932;51.438;5.470;2022-12-29T08:04:12;3.90;;;1.40;;
13720;SDS011;6932;51.438;5.470;2022-12-29T08:06:38;3.77;;;1.20;;
13720;SDS011;6932;51.438;5.470;2022-12-29T08:09:04;3.77;;;1.20;;
13720;SDS011;6932;51.438;5.470;2022-12-29T08:11:30;8.10;;;1.50;;
13720;SDS011;6932;51.438;5.470;2022-12-29T08:13:55;4.30;;;1.40;;
13720;SDS011;6932;51.438;5.470;2022-12-29T08:16:21;7.80;;;1.30;;
13720;SDS011;6932;51.438;5.470;2022-12-29T08:18:47;4.60;;;1.30;;
13720;SDS011;6932;51.438;5.470;2022-12-29T08:21:13;5.73;;;1.30;;
13720;SDS011;6932;51.438;5.470;2022-12-29T08:23:38;5.57;;;1.40;;
13720;SDS011;6932;51.438;5.470;2022-12-29T08:26:04;5.87;;;1.33;;
13720;SDS011;6932;51.438;5.470;2022-12-29T08:28:31;3.93;;;1.17;;
13720;SDS011;6932;51.438;5.470;2022-12-29T08:30:58;3.90;;;1.23;;
13720;SDS011;6932;51.438;5.470;2022-12-29T08:33:26;2.57;;;1.17;;
13720;SDS011;6932;51.438;5.470;2022-12-29T08:35:57;5.33;;;1.57;;
13720;SDS011;6932;51.438;5.470;2022-12-29T08:38:26;5.33;;;1.50;;
13720;SDS011;6932;51.438;5.470;2022-12-29T08:40:53;4.10;;;1.23;;
13720;SDS011;6932;51.438;5.470;2022-12-29T08:43:20;7.20;;;1.33;;
13720;SDS011;6932;51.438;5.470;2022-12-29T08:45:46;7.53;;;1.50;;
13720;SDS011;6932;51.438;5.470;2022-12-29T08:48:12;3.90;;;1.40;;
13720;SDS011;6932;51.438;5.470;2022-12-29T08:50:37;5.27;;;1.47;;
13720;SDS011;6932;51.438;5.470;2022-12-29T08:53:03;4.43;;;1.43;;
13720;SDS011;6932;51.438;5.470;2022-12-29T08:55:29;6.00;;;1.33;;
13720;SDS011;6932;51.438;5.470;2022-12-29T08:57:55;5.00;;;1.17;;
13720;SDS011;6932;51.438;5.470;2022-12-29T09:00:20;4.57;;;1.30;;
13720;SDS011;6932;51.438;5.470;2022-12-29T09:02:46;6.73;;;1.30;;
13720;SDS011;6932;51.438;5.470;2022-12-29T09:05:12;6.33;;;1.50;;
13720;SDS011;6932;51.438;5.470;2022-12-29T09:07:38;8.07;;;1.27;;
13720;SDS011;6932;51.438;5.470;2022-12-29T09:10:04;3.27;;;1.13;;
13720;SDS011;6932;51.438;5.470;2022-12-29T09:12:31;5.47;;;1.50;;
13720;SDS011;6932;51.438;5.470;2022-12-29T09:14:57;4.50;;;1.30;;
13720;SDS011;6932;51.438;5.470;2022-12-29T09:17:23;5.90;;;1.30;;
13720;SDS011;6932;51.438;5.470;2022-12-29T09:20:07;3.17;;;1.40;;
13720;SDS011;6932;51.438;5.470;2022-12-29T09:22:34;4.47;;;1.10;;
13720;SDS011;6932;51.438;5.470;2022-12-29T09:25:00;3.47;;;1.23;;
13720;SDS011;6932;51.438;5.470;2022-12-29T09:27:26;7.83;;;1.83;;
13720;SDS011;6932;51.438;5.470;2022-12-29T09:29:52;6.13;;;1.23;;
13720;SDS011;6932;51.438;5.470;2022-12-29T09:32:18;6.13;;;1.30;;
13720;SDS011;6932;51.438;5.470;2022-12-29T09:34:44;4.53;;;1.20;;
13720;SDS011;6932;51.438;5.470;2022-12-29T09:37:09;4.57;;;1.40;;
13720;SDS011;6932;51.438;5.470;2022-12-29T09:39:35;2.90;;;0.90;;
13720;SDS011;6932;51.438;5.470;2022-12-29T09:44:48;3.43;;;1.30;;
13720;SDS011;6932;51.438;5.470;2022-12-29T09:47:42;4.33;;;1.27;;
13720;SDS011;6932;51.438;5.470;2022-12-29T09:55:30;4.60;;;1.10;;
13720;SDS011;6932;51.438;5.470;2022-12-29T09:58:12;4.90;;;1.30;;
13720;SDS011;6932;51.438;5.470;2022-12-29T10:00:52;4.53;;;1.30;;
13720;SDS011;6932;51.438;5.470;2022-12-29T10:03:40;3.83;;;1.10;;
13720;SDS011;6932;51.438;5.470;2022-12-29T10:09:17;5.53;;;1.80;;
13720;SDS011;6932;51.438;5.470;2022-12-29T10:23:50;5.10;;;1.30;;
13720;SDS011;6932;51.438;5.470;2022-12-29T10:26:19;4.83;;;1.03;;
13720;SDS011;6932;51.438;5.470;2022-12-29T10:31:23;5.20;;;1.50;;
13720;SDS011;6932;51.438;5.470;2022-12-29T10:34:00;5.93;;;1.40;;
13720;SDS011;6932;51.438;5.470;2022-12-29T10:36:44;4.77;;;1.33;;
13720;SDS011;6932;51.438;5.470;2022-12-29T10:39:33;5.03;;;1.60;;
13720;SDS011;6932;51.438;5.470;2022-12-29T10:44:58;5.43;;;1.40;;
13720;SDS011;6932;51.438;5.470;2022-12-29T10:47:26;4.90;;;1.47;;
13720;SDS011;6932;51.438;5.470;2022-12-29T10:50:03;4.83;;;1.33;;
13720;SDS011;6932;51.438;5.470;2022-12-29T10:52:31;6.73;;;1.67;;
13720;SDS011;6932;51.438;5.470;2022-12-29T10:55:03;5.60;;;1.80;;
13720;SDS011;6932;51.438;5.470;2022-12-29T10:57:46;4.67;;;1.43;;
13720;SDS011;6932;51.438;5.470;2022-12-29T11:00:15;4.93;;;1.50;;
13720;SDS011;6932;51.438;5.470;2022-12-29T11:09:09;3.70;;;1.33;;
13720;SDS011;6932;51.438;5.470;2022-12-29T11:11:45;4.93;;;1.60;;
13720;SDS011;6932;51.438;5.470;2022-12-29T11:16:57;6.10;;;1.63;;
13720;SDS011;6932;51.438;5.470;2022-12-29T11:19:27;6.47;;;1.80;;
13720;SDS011;6932;51.438;5.470;2022-12-29T11:22:42;4.67;;;1.40;;
13720;SDS011;6932;51.438;5.470;2022-12-29T11:24:53;4.20;;;1.23;;
13720;SDS011;6932;51.438;5.470;2022-12-29T11:27:31;4.10;;;1.40;;
13720;SDS011;6932;51.438;5.470;2022-12-29T11:29:57;3.73;;;1.27;;
13720;SDS011;6932;51.438;5.470;2022-12-29T11:32:24;5.30;;;1.63;;
13720;SDS011;6932;51.438;5.470;2022-12-29T11:34:54;4.47;;;1.53;;
13720;SDS011;6932;51.438;5.470;2022-12-29T11:37:29;4.20;;;1.47;;
13720;SDS011;6932;51.438;5.470;2022-12-29T11:40:06;4.60;;;1.50;;
13720;SDS011;6932;51.438;5.470;2022-12-29T11:42:48;9.90;;;1.90;;
13720;SDS011;6932;51.438;5.470;2022-12-29T11:47:58;5.77;;;1.70;;
13720;SDS011;6932;51.438;5.470;2022-12-29T11:50:31;4.80;;;1.83;;
13720;SDS011;6932;51.438;5.470;2022-12-29T11:55:32;4.80;;;2.20;;
13720;SDS011;6932;51.438;5.470;2022-12-29T11:58:00;4.63;;;1.67;;
13720;SDS011;6932;51.438;5.470;2022-12-29T12:00:31;8.07;;;1.93;;
13720;SDS011;6932;51.438;5.470;2022-12-29T12:03:04;5.67;;;1.67;;
13720;SDS011;6932;51.438;5.470;2022-12-29T12:05:48;6.27;;;1.80;;
13720;SDS011;6932;51.438;5.470;2022-12-29T12:16:55;5.13;;;1.60;;
13720;SDS011;6932;51.438;5.470;2022-12-29T12:19:54;5.63;;;1.70;;
13720;SDS011;6932;51.438;5.470;2022-12-29T12:22:34;5.37;;;1.47;;
13720;SDS011;6932;51.438;5.470;2022-12-29T12:25:18;6.60;;;1.50;;
13720;SDS011;6932;51.438;5.470;2022-12-29T12:30:43;5.10;;;1.53;;
13720;SDS011;6932;51.438;5.470;2022-12-29T12:39:25;5.67;;;1.60;;
13720;SDS011;6932;51.438;5.470;2022-12-29T12:42:51;6.10;;;1.60;;
13720;SDS011;6932;51.438;5.470;2022-12-29T12:53:53;5.50;;;1.60;;
13720;SDS011;6932;51.438;5.470;2022-12-29T12:59:56;4.90;;;1.60;;
13720;SDS011;6932;51.438;5.470;2022-12-29T13:05:24;5.47;;;1.50;;
13720;SDS011;6932;51.438;5.470;2022-12-29T13:08:40;6.97;;;1.57;;
13720;SDS011;6932;51.438;5.470;2022-12-29T13:11:36;4.50;;;1.57;;
13720;SDS011;6932;51.438;5.470;2022-12-29T13:23:10;4.53;;;1.60;;
13720;SDS011;6932;51.438;5.470;2022-12-29T13:28:51;5.80;;;1.50;;
13720;SDS011;6932;51.438;5.470;2022-12-29T13:31:36;6.03;;;1.73;;
13720;SDS011;6932;51.438;5.470;2022-12-29T13:36:59;5.03;;;1.60;;
13720;SDS011;6932;51.438;5.470;2022-12-29T13:39:37;6.77;;;1.73;;
13720;SDS011;6932;51.438;5.470;2022-12-29T13:42:12;5.83;;;1.80;;
13720;SDS011;6932;51.438;5.470;2022-12-29T13:44:46;6.30;;;1.60;;
13720;SDS011;6932;51.438;5.470;2022-12-29T13:47:27;5.70;;;1.50;;
13720;SDS011;6932;51.438;5.470;2022-12-29T13:50:15;5.40;;;1.80;;
13720;SDS011;6932;51.438;5.470;2022-12-29T13:52:55;6.00;;;1.90;;
13720;SDS011;6932;51.438;5.470;2022-12-29T13:55:55;6.27;;;1.93;;
13720;SDS011;6932;51.438;5.470;2022-12-29T13:58:50;6.93;;;1.70;;
13720;SDS011;6932;51.438;5.470;2022-12-29T14:02:30;6.47;;;1.97;;
13720;SDS011;6932;51.438;5.470;2022-12-29T14:04:56;4.40;;;1.63;;
13720;SDS011;6932;51.438;5.470;2022-12-29T14:07:29;7.43;;;2.17;;
13720;SDS011;6932;51.438;5.470;2022-12-29T14:10:03;6.67;;;1.90;;
13720;SDS011;6932;51.438;5.470;2022-12-29T14:17:35;6.57;;;1.60;;
13720;SDS011;6932;51.438;5.470;2022-12-29T14:20:05;6.60;;;1.77;;
13720;SDS011;6932;51.438;5.470;2022-12-29T14:28:30;6.50;;;1.87;;
13720;SDS011;6932;51.438;5.470;2022-12-29T14:36:38;6.23;;;1.83;;
13720;SDS011;6932;51.438;5.470;2022-12-29T14:44:51;5.13;;;1.50;;
13720;SDS011;6932;51.438;5.470;2022-12-29T14:47:46;4.43;;;1.83;;
13720;SDS011;6932;51.438;5.470;2022-12-29T14:50:22;3.50;;;1.40;;
13720;SDS011;6932;51.438;5.470;2022-12-29T14:53:06;6.73;;;1.50;;
13720;SDS011;6932;51.438;5.470;2022-12-29T14:56:12;7.80;;;2.00;;
13720;SDS011;6932;51.438;5.470;2022-12-29T15:01:19;5.00;;;1.73;;
13720;SDS011;6932;51.438;5.470;2022-12-29T15:06:42;7.40;;;2.27;;
13720;SDS011;6932;51.438;5.470;2022-12-29T15:09:30;6.77;;;1.57;;
13720;SDS011;6932;51.438;5.470;2022-12-29T15:15:17;8.00;;;1.80;;
13720;SDS011;6932;51.438;5.470;2022-12-29T15:17:52;2.97;;;1.50;;
13720;SDS011;6932;51.438;5.470;2022-12-29T15:23:17;7.30;;;1.63;;
13720;SDS011;6932;51.438;5.470;2022-12-29T15:25:55;6.57;;;1.77;;
13720;SDS011;6932;51.438;5.470;2022-12-29T15:28:24;6.77;;;1.50;;
13720;SDS011;6932;51.438;5.470;2022-12-29T15:31:11;2.77;;;1.27;;
13720;SDS011;6932;51.438;5.470;2022-12-29T15:33:51;3.50;;;1.30;;
13720;SDS011;6932;51.438;5.470;2022-12-29T15:36:37;3.70;;;1.80;;
13720;SDS011;6932;51.438;5.470;2022-12-29T15:39:19;3.63;;;1.63;;
13720;SDS011;6932;51.438;5.470;2022-12-29T15:41:55;3.53;;;1.60;;
13720;SDS011;6932;51.438;5.470;2022-12-29T15:44:55;3.03;;;1.20;;
13720;SDS011;6932;51.438;5.470;2022-12-29T15:47:22;3.20;;;1.23;;
13720;SDS011;6932;51.438;5.470;2022-12-29T15:49:54;4.13;;;1.30;;
13720;SDS011;6932;51.438;5.470;2022-12-29T15:52:29;6.13;;;1.70;;
13720;SDS011;6932;51.438;5.470;2022-12-29T15:54:58;3.37;;;1.20;;
13720;SDS011;6932;51.438;5.470;2022-12-29T15:57:31;3.23;;;1.13;;
13720;SDS011;6932;51.438;5.470;2022-12-29T16:03:13;2.70;;;1.20;;
13720;SDS011;6932;51.438;5.470;2022-12-29T16:05:41;3.23;;;1.23;;
13720;SDS011;6932;51.438;5.470;2022-12-29T16:08:22;2.07;;;1.00;;
13720;SDS011;6932;51.438;5.470;2022-12-29T16:13:55;5.03;;;1.40;;
13720;SDS011;6932;51.438;5.470;2022-12-29T16:16:22;2.47;;;0.90;;
13720;SDS011;6932;51.438;5.470;2022-12-29T16:18:59;3.03;;;1.20;;
13720;SDS011;6932;51.438;5.470;2022-12-29T16:21:49;2.60;;;1.00;;
13720;SDS011;6932;51.438;5.470;2022-12-29T16:24:20;2.10;;;1.20;;
13720;SDS011;6932;51.438;5.470;2022-12-29T16:26:56;3.23;;;1.13;;
13720;SDS011;6932;51.438;5.470;2022-12-29T16:29:29;2.90;;;1.17;;
13720;SDS011;6932;51.438;5.470;2022-12-29T16:31:57;4.07;;;1.37;;
13720;SDS011;6932;51.438;5.470;2022-12-29T16:34:32;4.97;;;1.50;;
13720;SDS011;6932;51.438;5.470;2022-12-29T16:42:46;5.03;;;1.40;;
13720;SDS011;6932;51.438;5.470;2022-12-29T16:47:48;3.80;;;1.50;;
13720;SDS011;6932;51.438;5.470;2022-12-29T16:50:30;4.60;;;1.30;;
13720;SDS011;6932;51.438;5.470;2022-12-29T16:52:57;2.90;;;1.10;;
13720;SDS011;6932;51.438;5.470;2022-12-29T16:55:23;4.37;;;1.30;;
13720;SDS011;6932;51.438;5.470;2022-12-29T16:57:50;3.43;;;1.30;;
13720;SDS011;6932;51.438;5.470;2022-12-29T17:00:22;5.27;;;1.70;;
13720;SDS011;6932;51.438;5.470;2022-12-29T17:02:53;3.93;;;1.23;;
13720;SDS011;6932;51.438;5.470;2022-12-29T17:05:25;4.60;;;1.40;;
13720;SDS011;6932;51.438;5.470;2022-12-29T17:07:50;4.73;;;1.70;;
13720;SDS011;6932;51.438;5.470;2022-12-29T17:10:17;4.30;;;1.60;;
13720;SDS011;6932;51.438;5.470;2022-12-29T17:12:44;3.73;;;1.67;;
13720;SDS011;6932;51.438;5.470;2022-12-29T17:15:26;6.83;;;1.90;;
13720;SDS011;6932;51.438;5.470;2022-12-29T17:17:57;4.00;;;1.50;;
13720;SDS011;6932;51.438;5.470;2022-12-29T17:20:26;3.97;;;1.27;;
13720;SDS011;6932;51.438;5.470;2022-12-29T17:22:54;5.40;;;1.57;;
13720;SDS011;6932;51.438;5.470;2022-12-29T17:25:23;6.77;;;1.63;;
13720;SDS011;6932;51.438;5.470;2022-12-29T17:27:59;4.47;;;1.50;;
13720;SDS011;6932;51.438;5.470;2022-12-29T17:30:52;5.67;;;1.70;;
13720;SDS011;6932;51.438;5.470;2022-12-29T17:33:26;5.00;;;1.50;;
13720;SDS011;6932;51.438;5.470;2022-12-29T17:35:56;5.20;;;1.57;;
13720;SDS011;6932;51.438;5.470;2022-12-29T17:38:25;5.83;;;1.90;;
13720;SDS011;6932;51.438;5.470;2022-12-29T17:40:58;4.67;;;1.60;;
13720;SDS011;6932;51.438;5.470;2022-12-29T17:43:25;5.63;;;1.60;;
13720;SDS011;6932;51.438;5.470;2022-12-29T17:45:52;3.80;;;1.43;;
13720;SDS011;6932;51.438;5.470;2022-12-29T17:48:21;6.53;;;1.70;;
13720;SDS011;6932;51.438;5.470;2022-12-29T17:50:49;7.10;;;1.93;;
13720;SDS011;6932;51.438;5.470;2022-12-29T17:53:25;4.63;;;1.87;;
13720;SDS011;6932;51.438;5.470;2022-12-29T17:55:53;5.07;;;1.67;;
13720;SDS011;6932;51.438;5.470;2022-12-29T17:58:20;6.70;;;1.90;;
13720;SDS011;6932;51.438;5.470;2022-12-29T18:00:53;6.97;;;1.97;;
13720;SDS011;6932;51.438;5.470;2022-12-29T18:03:43;6.30;;;1.80;;
13720;SDS011;6932;51.438;5.470;2022-12-29T18:06:08;5.63;;;1.97;;
13720;SDS011;6932;51.438;5.470;2022-12-29T18:08:37;7.53;;;2.00;;
13720;SDS011;6932;51.438;5.470;2022-12-29T18:11:17;7.70;;;2.00;;
13720;SDS011;6932;51.438;5.470;2022-12-29T18:13:48;5.93;;;2.17;;
13720;SDS011;6932;51.438;5.470;2022-12-29T18:16:14;5.77;;;2.20;;
13720;SDS011;6932;51.438;5.470;2022-12-29T18:18:40;6.60;;;1.90;;